createdAt,value
2023-02-14T00:02:27.824Z,0.30
2023-02-14T00:04:57.354Z,0.40
2023-02-14T00:07:28.323Z,0.30
2023-02-14T00:09:57.812Z,0.30
2023-02-14T00:12:27.290Z,0.30
2023-02-14T00:15:14.228Z,0.30
2023-02-14T00:17:43.732Z,0.30
2023-02-14T00:20:13.475Z,0.30
2023-02-14T00:22:47.559Z,0.30
2023-02-14T00:25:17.332Z,0.30
2023-02-14T00:27:47.201Z,0.30
2023-02-14T00:30:17.259Z,0.30
2023-02-14T00:32:46.776Z,0.30
2023-02-14T00:35:16.244Z,0.30
2023-02-14T00:37:56.524Z,0.30
2023-02-14T00:40:25.919Z,0.30
2023-02-14T00:42:55.268Z,0.30
2023-02-14T00:45:25.483Z,0.30
2023-02-14T00:47:55.039Z,0.30
2023-02-14T00:50:24.480Z,0.30
2023-02-14T00:52:55.713Z,0.30
2023-02-14T00:55:26.973Z,0.30
2023-02-14T00:57:56.930Z,0.30
2023-02-14T01:00:26.405Z,0.30
2023-02-14T01:02:58.217Z,0.30
2023-02-14T01:05:27.714Z,0.40
2023-02-14T01:07:58.693Z,0.30
2023-02-14T01:10:28.160Z,0.40
2023-02-14T01:12:58.023Z,0.30
2023-02-14T01:15:27.428Z,0.30
2023-02-14T01:17:56.829Z,0.30
2023-02-14T01:20:26.694Z,0.30
2023-02-14T01:23:32.131Z,0.33
2023-02-14T01:26:56.486Z,0.30
2023-02-14T01:29:58.775Z,0.30
2023-02-14T01:32:28.302Z,0.30
2023-02-14T01:34:57.781Z,0.30
2023-02-14T01:37:27.265Z,0.30
2023-02-14T01:39:56.746Z,0.40
2023-02-14T01:42:26.274Z,0.30
2023-02-14T01:44:58.307Z,0.30
2023-02-14T01:47:28.798Z,0.30
2023-02-14T01:50:00.832Z,0.30
2023-02-14T01:52:32.794Z,0.30
2023-02-14T01:55:04.264Z,0.30
2023-02-14T01:57:36.163Z,0.40
2023-02-14T02:00:25.589Z,0.30
2023-02-14T02:02:55.276Z,0.30
2023-02-14T02:05:24.988Z,0.30
2023-02-14T02:07:55.045Z,0.40
2023-02-14T02:10:25.386Z,0.30
2023-02-14T02:12:55.423Z,0.30
2023-02-14T02:15:28.508Z,0.30
2023-02-14T02:18:00.973Z,0.30
2023-02-14T02:20:38.332Z,0.30
2023-02-14T02:23:26.485Z,0.30
2023-02-14T02:26:18.159Z,0.30
2023-02-14T02:29:06.387Z,0.30
2023-02-14T02:31:47.859Z,0.30
2023-02-14T02:34:36.052Z,0.30
2023-02-14T02:37:13.299Z,0.30
2023-02-14T02:39:48.227Z,0.30
2023-02-14T02:42:24.461Z,0.40
2023-02-14T02:44:57.656Z,0.30
2023-02-14T02:47:29.040Z,0.30
2023-02-14T02:50:18.581Z,0.40
2023-02-14T02:53:06.303Z,0.30
2023-02-14T02:55:59.985Z,0.30
2023-02-14T02:58:32.649Z,0.40
2023-02-14T03:01:04.359Z,0.30
2023-02-14T03:03:52.062Z,0.30
2023-02-14T03:06:21.547Z,0.37
2023-02-14T03:08:52.559Z,0.30
2023-02-14T03:11:22.200Z,0.30
2023-02-14T03:14:10.041Z,0.30
2023-02-14T03:16:43.228Z,0.37
2023-02-14T03:19:33.840Z,0.30
2023-02-14T03:22:08.061Z,0.30
2023-02-14T03:24:44.566Z,0.30
2023-02-14T03:27:17.321Z,0.40
2023-02-14T03:29:51.978Z,0.40
2023-02-14T03:32:25.454Z,0.33
2023-02-14T03:34:56.857Z,0.30
2023-02-14T03:37:28.526Z,0.30
2023-02-14T03:40:03.400Z,0.33
2023-02-14T03:42:35.133Z,0.30
2023-02-14T03:45:06.789Z,0.30
2023-02-14T03:47:38.721Z,0.30
2023-02-14T03:50:10.957Z,0.30
2023-02-14T03:52:40.921Z,0.30
2023-02-14T03:55:12.950Z,0.30
2023-02-14T03:57:47.731Z,0.40
2023-02-14T04:00:18.423Z,0.40
2023-02-14T04:02:49.993Z,0.30
2023-02-14T04:05:21.093Z,0.37
2023-02-14T04:07:51.882Z,0.40
2023-02-14T04:10:22.779Z,0.37
2023-02-14T04:12:52.286Z,0.33
2023-02-14T04:15:21.767Z,0.30
2023-02-14T04:18:08.875Z,0.30
2023-02-14T04:20:38.589Z,0.30
2023-02-14T04:23:08.058Z,0.40
2023-02-14T04:25:40.039Z,0.40
2023-02-14T04:28:09.507Z,0.40
2023-02-14T04:30:38.966Z,0.37
2023-02-14T04:33:09.124Z,0.30
2023-02-14T04:35:38.946Z,0.30
2023-02-14T04:38:08.416Z,0.30
2023-02-14T04:40:39.245Z,0.30
2023-02-14T04:43:08.787Z,0.30
2023-02-14T04:45:38.260Z,0.37
2023-02-14T04:48:07.733Z,0.40
2023-02-14T04:50:37.207Z,0.30
2023-02-14T04:53:06.657Z,0.40
2023-02-14T04:55:36.128Z,0.30
2023-02-14T04:58:06.937Z,0.30
2023-02-14T05:00:36.567Z,0.40
2023-02-14T05:03:06.086Z,0.33
2023-02-14T05:05:35.591Z,0.30
2023-02-14T05:08:05.086Z,0.40
2023-02-14T05:10:34.564Z,0.40
2023-02-14T05:13:04.099Z,0.37
2023-02-14T05:15:36.829Z,0.40
2023-02-14T05:18:08.023Z,0.37
2023-02-14T05:20:37.535Z,0.40
2023-02-14T05:23:13.497Z,0.40
2023-02-14T05:25:43.035Z,0.30
2023-02-14T05:28:12.733Z,0.40
2023-02-14T05:30:43.771Z,0.40
2023-02-14T05:33:13.355Z,0.30
2023-02-14T05:35:43.015Z,0.37
2023-02-14T05:38:13.153Z,0.30
2023-02-14T05:40:42.721Z,0.30
2023-02-14T05:43:12.198Z,0.40
2023-02-14T05:45:43.210Z,0.30
2023-02-14T05:48:13.352Z,0.30
2023-02-14T05:50:42.981Z,0.30
2023-02-14T05:53:12.558Z,0.30
2023-02-14T05:55:42.254Z,0.30
2023-02-14T05:58:12.195Z,0.30
2023-02-14T06:00:43.051Z,0.40
2023-02-14T06:03:12.673Z,0.40
2023-02-14T06:05:42.191Z,0.40
2023-02-14T06:08:11.733Z,0.40
2023-02-14T06:10:41.227Z,0.40
2023-02-14T06:13:10.741Z,0.40
2023-02-14T06:15:40.223Z,0.40
2023-02-14T06:18:11.107Z,0.40
2023-02-14T06:20:40.683Z,0.40
2023-02-14T06:23:10.170Z,0.40
2023-02-14T06:25:39.634Z,0.40
2023-02-14T06:28:09.171Z,0.40
2023-02-14T06:30:38.850Z,0.40
2023-02-14T06:33:08.465Z,0.40
2023-02-14T06:35:39.309Z,0.40
2023-02-14T06:38:08.775Z,0.40
2023-02-14T06:40:38.253Z,0.40
2023-02-14T06:43:07.758Z,0.40
2023-02-14T06:45:37.255Z,0.40
2023-02-14T06:48:06.849Z,0.40
2023-02-14T06:50:38.062Z,0.40
2023-02-14T06:53:08.908Z,0.40
2023-02-14T06:55:38.378Z,0.40
2023-02-14T06:58:07.912Z,0.40
2023-02-14T07:00:37.485Z,0.40
2023-02-14T07:03:07.496Z,0.40
2023-02-14T07:05:37.405Z,0.30
2023-02-14T07:08:08.219Z,0.30
2023-02-14T07:10:39.315Z,0.30
2023-02-14T07:13:08.882Z,0.30
2023-02-14T07:15:38.452Z,0.30
2023-02-14T07:18:08.761Z,0.30
2023-02-14T07:20:38.247Z,0.30
2023-02-14T07:23:07.800Z,0.30
2023-02-14T07:25:39.126Z,0.30
2023-02-14T07:28:08.961Z,0.37
2023-02-14T07:30:38.469Z,0.30
2023-02-14T07:33:07.998Z,0.40
2023-02-14T07:35:37.542Z,0.30
2023-02-14T07:38:07.061Z,0.30
2023-02-14T07:40:36.528Z,0.30
2023-02-14T07:43:08.071Z,0.30
2023-02-14T07:45:37.665Z,0.30
2023-02-14T07:48:07.523Z,0.30
2023-02-14T07:50:36.989Z,0.30
2023-02-14T07:53:08.561Z,0.30
2023-02-14T07:55:38.099Z,0.30
2023-02-14T07:58:09.064Z,0.30
2023-02-14T08:00:38.586Z,0.30
2023-02-14T08:03:08.033Z,0.30
2023-02-14T08:05:37.722Z,0.37
2023-02-14T08:08:07.200Z,0.30
2023-02-14T08:10:36.709Z,0.30
2023-02-14T08:13:06.200Z,0.30
2023-02-14T08:15:54.789Z,0.30
2023-02-14T08:18:24.361Z,0.30
2023-02-14T08:20:53.838Z,0.30
2023-02-14T08:23:23.577Z,0.30
2023-02-14T08:25:53.689Z,0.30
2023-02-14T08:28:23.803Z,0.30
2023-02-14T08:30:55.150Z,0.30
2023-02-14T08:33:24.717Z,0.30
2023-02-14T08:35:54.227Z,0.30
2023-02-14T08:38:23.776Z,0.30
2023-02-14T08:40:53.309Z,0.30
2023-02-14T08:43:22.789Z,0.30
2023-02-14T08:45:55.521Z,0.30
2023-02-14T08:48:26.833Z,0.30
2023-02-14T08:50:56.343Z,0.30
2023-02-14T08:53:26.538Z,0.30
2023-02-14T08:55:56.068Z,0.30
2023-02-14T08:58:25.570Z,0.30
2023-02-14T09:00:56.544Z,0.30
2023-02-14T09:03:26.114Z,0.30
2023-02-14T09:05:55.714Z,0.30
2023-02-14T09:08:25.191Z,0.30
2023-02-14T09:10:59.330Z,0.30
2023-02-14T09:13:30.613Z,0.27
2023-02-14T09:16:05.058Z,0.30
2023-02-14T09:18:34.660Z,0.30
2023-02-14T09:21:04.645Z,0.30
2023-02-14T09:23:34.187Z,0.30
2023-02-14T09:26:04.091Z,0.30
2023-02-14T09:28:33.726Z,0.30
2023-02-14T09:31:10.231Z,0.30
2023-02-14T09:33:40.031Z,0.30
2023-02-14T09:36:27.424Z,0.30
2023-02-14T09:38:57.111Z,0.30
2023-02-14T09:41:36.907Z,0.30
2023-02-14T09:44:07.862Z,0.30
2023-02-14T09:46:42.345Z,0.30
2023-02-14T09:49:15.124Z,0.30
2023-02-14T09:51:49.685Z,0.30
2023-02-14T09:54:21.986Z,0.30
2023-02-14T09:56:56.036Z,0.30
2023-02-14T09:59:27.475Z,0.30
2023-02-14T10:01:59.880Z,0.30
2023-02-14T10:04:34.185Z,0.30
2023-02-14T10:07:09.898Z,0.20
2023-02-14T10:09:47.625Z,0.30
2023-02-14T10:12:22.201Z,0.30
2023-02-14T10:14:52.284Z,0.30
2023-02-14T10:17:25.707Z,0.30
2023-02-14T10:19:57.204Z,0.30
2023-02-14T10:22:29.151Z,0.30
2023-02-14T10:25:01.233Z,0.30
2023-02-14T10:27:32.678Z,0.20
2023-02-14T10:30:02.800Z,0.30
2023-02-14T10:32:37.903Z,0.27
2023-02-14T10:35:09.724Z,0.20
2023-02-14T10:37:49.635Z,0.20
2023-02-14T10:40:26.812Z,0.30
2023-02-14T10:43:02.366Z,0.20
2023-02-14T10:45:33.826Z,0.30
2023-02-14T10:48:08.335Z,0.30
2023-02-14T10:50:41.566Z,0.30
2023-02-14T10:53:17.099Z,0.30
2023-02-14T10:55:49.899Z,0.30
2023-02-14T10:58:21.372Z,0.30
2023-02-14T11:00:56.304Z,0.30
2023-02-14T11:03:27.806Z,0.30
2023-02-14T11:05:58.699Z,0.30
2023-02-14T11:08:29.697Z,0.30
2023-02-14T11:11:02.952Z,0.30
2023-02-14T11:13:34.204Z,0.20
2023-02-14T11:16:05.087Z,0.30
2023-02-14T11:18:36.854Z,0.30
2023-02-14T11:21:11.005Z,0.20
2023-02-14T11:23:42.185Z,0.30
2023-02-14T11:26:13.764Z,0.30
2023-02-14T11:28:52.579Z,0.30
2023-02-14T11:31:27.151Z,0.30
2023-02-14T11:33:58.277Z,0.30
2023-02-14T11:36:28.253Z,0.30
2023-02-14T11:38:59.399Z,0.30
2023-02-14T11:41:28.869Z,0.30
2023-02-14T11:44:11.224Z,0.30
2023-02-14T11:46:52.289Z,0.30
2023-02-14T11:49:40.470Z,0.30
2023-02-14T11:52:12.808Z,0.30
2023-02-14T11:54:44.879Z,0.30
2023-02-14T11:57:16.521Z,0.30
2023-02-14T11:59:47.343Z,0.30
2023-02-14T12:02:23.205Z,0.30
2023-02-14T12:04:54.590Z,0.30
2023-02-14T12:07:28.038Z,0.30
2023-02-14T12:10:09.740Z,0.30
2023-02-14T12:12:40.050Z,0.20
2023-02-14T12:15:23.430Z,0.20
2023-02-14T12:17:55.616Z,0.30
2023-02-14T12:20:28.267Z,0.30
2023-02-14T12:23:03.283Z,0.30
2023-02-14T12:25:37.091Z,0.30
2023-02-14T12:28:08.431Z,0.30
2023-02-14T12:30:37.978Z,0.20
2023-02-14T12:33:16.942Z,0.30
2023-02-14T12:35:49.217Z,0.30
2023-02-14T12:38:25.536Z,0.30
2023-02-14T12:40:58.542Z,0.20
2023-02-14T12:43:36.944Z,0.27
2023-02-14T12:46:16.272Z,0.20
2023-02-14T12:48:54.286Z,0.30
2023-02-14T12:51:26.696Z,0.30
2023-02-14T12:54:04.150Z,0.30
2023-02-14T12:56:38.357Z,0.20
2023-02-14T12:59:12.791Z,0.20
2023-02-14T13:01:51.442Z,0.20
2023-02-14T13:04:27.100Z,0.30
2023-02-14T13:06:58.907Z,0.30
2023-02-14T13:09:35.721Z,0.30
2023-02-14T13:12:12.233Z,0.20
2023-02-14T13:14:47.253Z,0.30
2023-02-14T13:17:22.220Z,0.20
2023-02-14T13:19:55.543Z,0.20
2023-02-14T13:22:27.282Z,0.30
2023-02-14T13:24:59.617Z,0.30
2023-02-14T13:27:31.395Z,0.20
2023-02-14T13:30:03.131Z,0.20
2023-02-14T13:32:34.124Z,0.30
2023-02-14T13:35:03.877Z,0.30
2023-02-14T13:37:33.637Z,0.23
2023-02-14T13:40:06.469Z,0.30
2023-02-14T13:42:55.511Z,0.30
2023-02-14T13:45:43.369Z,0.20
2023-02-14T13:48:14.028Z,0.30
2023-02-14T13:50:51.237Z,0.30
2023-02-14T13:53:34.632Z,0.30
2023-02-14T13:56:08.070Z,0.30
2023-02-14T13:58:37.655Z,0.30
2023-02-14T14:01:22.016Z,0.20
2023-02-14T14:03:55.958Z,0.20
2023-02-14T14:06:25.438Z,0.30
2023-02-14T14:08:56.662Z,0.30
2023-02-14T14:12:00.778Z,0.30
2023-02-14T14:14:39.887Z,0.30
2023-02-14T14:17:23.212Z,0.20
2023-02-14T14:19:52.762Z,0.20
2023-02-14T14:22:22.400Z,0.30
2023-02-14T14:24:57.117Z,0.30
2023-02-14T14:27:27.700Z,0.30
2023-02-14T14:29:59.475Z,0.30
2023-02-14T14:32:30.683Z,0.20
2023-02-14T14:35:02.755Z,0.30
2023-02-14T14:37:33.583Z,0.23
2023-02-14T14:40:04.018Z,0.30
2023-02-14T14:42:36.403Z,0.30
2023-02-14T14:45:08.892Z,0.30
2023-02-14T14:47:42.405Z,0.20
2023-02-14T14:50:16.571Z,0.30
2023-02-14T14:52:48.757Z,0.20
2023-02-14T14:55:20.255Z,0.20
2023-02-14T14:57:53.459Z,0.23
2023-02-14T15:00:29.026Z,0.30
2023-02-14T15:03:03.271Z,0.30
2023-02-14T15:05:35.059Z,0.20
2023-02-14T15:08:34.757Z,0.30
2023-02-14T15:11:07.419Z,0.30
2023-02-14T15:13:50.812Z,0.30
2023-02-14T15:16:23.716Z,0.30
2023-02-14T15:18:55.358Z,0.30
2023-02-14T15:21:24.940Z,0.30
2023-02-14T15:23:55.103Z,0.30
2023-02-14T15:26:26.156Z,0.30
2023-02-14T15:28:57.383Z,0.30
2023-02-14T15:31:38.985Z,0.30
2023-02-14T15:34:08.863Z,0.30
2023-02-14T15:36:38.822Z,0.30
2023-02-14T15:39:10.391Z,0.20
2023-02-14T15:41:44.234Z,0.30
2023-02-14T15:44:20.685Z,0.30
2023-02-14T15:46:55.327Z,0.20
2023-02-14T15:49:26.825Z,0.30
2023-02-14T15:51:56.762Z,0.30
2023-02-14T15:54:31.247Z,0.30
2023-02-14T15:57:01.138Z,0.30
2023-02-14T15:59:34.438Z,0.30
2023-02-14T16:02:07.753Z,0.30
2023-02-14T16:04:37.570Z,0.30
2023-02-14T16:07:10.224Z,0.30
2023-02-14T16:09:39.701Z,0.30
2023-02-14T16:12:28.247Z,0.30
2023-02-14T16:15:03.298Z,0.30
2023-02-14T16:17:35.594Z,0.30
2023-02-14T16:20:38.073Z,0.30
2023-02-14T16:23:24.058Z,0.30
2023-02-14T16:25:53.699Z,0.40
2023-02-14T16:28:23.204Z,0.40
2023-02-14T16:30:55.632Z,0.30
2023-02-14T16:33:28.224Z,0.40
2023-02-14T16:36:00.301Z,0.40
2023-02-14T16:38:29.885Z,0.30
2023-02-14T16:40:59.636Z,0.30
2023-02-14T16:43:29.339Z,0.40
2023-02-14T16:45:58.957Z,0.40
2023-02-14T16:48:29.841Z,0.40
2023-02-14T16:50:59.551Z,0.37
2023-02-14T16:53:29.790Z,0.40
2023-02-14T16:55:59.391Z,0.40
2023-02-14T16:58:33.113Z,0.40
2023-02-14T17:01:03.075Z,0.40
2023-02-14T17:03:34.385Z,0.40
2023-02-14T17:06:04.094Z,0.40
2023-02-14T17:08:33.812Z,0.40
2023-02-14T17:11:04.408Z,0.40
2023-02-14T17:13:35.028Z,0.30
2023-02-14T17:16:06.371Z,0.40
2023-02-14T17:18:37.833Z,0.40
2023-02-14T17:21:07.227Z,0.30
2023-02-14T17:23:36.639Z,0.40
2023-02-14T17:26:07.068Z,0.40
2023-02-14T17:28:36.497Z,0.40
2023-02-14T17:31:06.497Z,0.40
2023-02-14T17:33:38.965Z,0.40
2023-02-14T17:36:11.807Z,0.40
2023-02-14T17:38:43.420Z,0.40
2023-02-14T17:41:14.357Z,0.40
2023-02-14T17:43:43.853Z,0.40
2023-02-14T17:46:14.486Z,0.40
2023-02-14T17:48:45.570Z,0.40
2023-02-14T17:51:15.395Z,0.30
2023-02-14T17:53:44.979Z,0.40
2023-02-14T17:56:15.399Z,0.40
2023-02-14T17:58:47.638Z,0.40
2023-02-14T18:01:18.295Z,0.40
2023-02-14T18:03:51.855Z,0.40
2023-02-14T18:06:21.698Z,0.37
2023-02-14T18:08:53.132Z,0.30
2023-02-14T18:11:23.344Z,0.40
2023-02-14T18:13:53.370Z,0.40
2023-02-14T18:16:23.057Z,0.40
2023-02-14T18:18:54.895Z,0.40
2023-02-14T18:21:25.407Z,0.40
2023-02-14T18:23:54.987Z,0.40
2023-02-14T18:26:24.489Z,0.30
2023-02-14T18:28:54.337Z,0.40
2023-02-14T18:31:23.952Z,0.40
2023-02-14T18:33:54.979Z,0.40
2023-02-14T18:36:25.154Z,0.40
2023-02-14T18:38:56.273Z,0.40
2023-02-14T18:41:26.125Z,0.40
2023-02-14T18:43:56.096Z,0.40
2023-02-14T18:46:26.640Z,0.40
2023-02-14T18:48:58.169Z,0.40
2023-02-14T18:51:28.501Z,0.40
2023-02-14T18:53:58.617Z,0.40
2023-02-14T18:56:28.987Z,0.40
2023-02-14T18:58:59.327Z,0.40
2023-02-14T19:01:30.543Z,0.40
2023-02-14T19:04:02.109Z,0.50
2023-02-14T19:06:34.047Z,0.30
2023-02-14T19:09:04.160Z,0.40
2023-02-14T19:11:33.875Z,0.40
2023-02-14T19:14:09.334Z,0.40
2023-02-14T19:16:39.486Z,0.40
2023-02-14T19:19:10.434Z,0.40
2023-02-14T19:21:39.927Z,0.40
2023-02-14T19:24:09.635Z,0.30
2023-02-14T19:26:40.985Z,0.40
2023-02-14T19:29:11.671Z,0.40
2023-02-14T19:31:42.176Z,0.40
2023-02-14T19:34:17.542Z,0.30
2023-02-14T19:36:47.957Z,0.40
2023-02-14T19:39:17.728Z,0.40
2023-02-14T19:41:47.667Z,0.40
2023-02-14T19:44:17.981Z,0.40
2023-02-14T19:46:47.853Z,0.40
2023-02-14T19:49:20.408Z,0.40
2023-02-14T19:51:52.169Z,0.40
2023-02-14T19:54:24.047Z,0.40
2023-02-14T19:56:56.107Z,0.33
2023-02-14T19:59:27.916Z,0.40
2023-02-14T20:01:58.372Z,0.40
2023-02-14T20:04:30.654Z,0.40
2023-02-14T20:07:00.297Z,0.40
2023-02-14T20:09:29.887Z,0.40
2023-02-14T20:12:01.163Z,0.40
2023-02-14T20:14:38.396Z,0.40
2023-02-14T20:17:17.196Z,0.40
2023-02-14T20:19:48.942Z,0.30
2023-02-14T20:22:20.299Z,0.40
2023-02-14T20:24:50.223Z,0.40
2023-02-14T20:27:19.980Z,0.43
2023-02-14T20:29:51.190Z,0.40
2023-02-14T20:32:20.705Z,0.40
2023-02-14T20:34:51.888Z,0.50
2023-02-14T20:37:21.421Z,0.40
2023-02-14T20:39:50.935Z,0.40
2023-02-14T20:42:20.536Z,0.40
2023-02-14T20:44:50.055Z,0.40
2023-02-14T20:47:20.086Z,0.40
2023-02-14T20:49:51.513Z,0.40
2023-02-14T20:52:21.360Z,0.40
2023-02-14T20:54:51.392Z,0.40
2023-02-14T20:57:20.882Z,0.40
2023-02-14T20:59:50.370Z,0.40
2023-02-14T21:02:19.843Z,0.40
2023-02-14T21:04:51.034Z,0.40
2023-02-14T21:07:20.558Z,0.40
2023-02-14T21:09:50.049Z,0.40
2023-02-14T21:12:19.525Z,0.43
2023-02-14T21:14:49.314Z,0.40
2023-02-14T21:17:18.779Z,0.40
2023-02-14T21:19:48.308Z,0.40
2023-02-14T21:22:19.365Z,0.40
2023-02-14T21:24:49.298Z,0.40
2023-02-14T21:27:18.749Z,0.40
2023-02-14T21:29:48.237Z,0.40
2023-02-14T21:32:18.238Z,0.40
2023-02-14T21:34:48.211Z,0.50
2023-02-14T21:37:19.001Z,0.40
2023-02-14T21:39:48.522Z,0.37
2023-02-14T21:42:18.725Z,0.40
2023-02-14T21:45:05.626Z,0.40
2023-02-14T21:47:38.083Z,0.40
2023-02-14T21:50:26.015Z,0.40
2023-02-14T21:52:56.887Z,0.40
2023-02-14T21:55:26.434Z,0.40
2023-02-14T21:57:55.880Z,0.30
2023-02-14T22:00:25.505Z,0.37
2023-02-14T22:02:55.010Z,0.40
2023-02-14T22:05:24.656Z,0.40
2023-02-14T22:07:54.167Z,0.40
2023-02-14T22:10:25.049Z,0.40
2023-02-14T22:12:54.521Z,0.40
2023-02-14T22:15:24.843Z,0.40
2023-02-14T22:17:54.316Z,0.40
2023-02-14T22:20:24.242Z,0.40
2023-02-14T22:22:53.750Z,0.40
2023-02-14T22:25:23.284Z,0.40
2023-02-14T22:27:55.143Z,0.40
2023-02-14T22:30:24.678Z,0.40
2023-02-14T22:32:54.220Z,0.40
2023-02-14T22:35:23.720Z,0.40
2023-02-14T22:37:53.210Z,0.40
2023-02-14T22:40:22.849Z,0.40
2023-02-14T22:42:53.815Z,0.30
2023-02-14T22:45:23.222Z,0.33
2023-02-14T22:47:52.686Z,0.40
2023-02-14T22:50:22.423Z,0.40
2023-02-14T22:52:51.810Z,0.40
2023-02-14T22:55:21.268Z,0.40
2023-02-14T22:57:50.752Z,0.30
2023-02-14T23:00:21.929Z,0.30
2023-02-14T23:02:51.494Z,0.30
2023-02-14T23:05:21.111Z,0.30
2023-02-14T23:07:50.568Z,0.30
2023-02-14T23:10:20.148Z,0.40
2023-02-14T23:13:07.348Z,0.40
2023-02-14T23:19:42.667Z,0.38
2023-02-14T23:22:12.930Z,0.40
2023-02-14T23:26:25.989Z,0.40
2023-02-14T23:30:25.648Z,0.38
2023-02-14T23:34:15.018Z,0.30
2023-02-14T23:38:26.663Z,0.35
2023-02-14T23:42:18.994Z,0.47
2023-02-14T23:54:34.042Z,0.22
